sensor_id;sensor_type;location;lat;lon;timestamp;pressure;altitude;pressure_sealevel;temperature;humidity
60433;BME280;46286;48.098;11.590;2023-02-28T00:00:23;95922.69;;;-4.54;100.00
60433;BME280;46286;48.098;11.590;2023-02-28T00:03:09;95926.41;;;-4.56;100.00
60433;BME280;46286;48.098;11.590;2023-02-28T00:05:34;95926.91;;;-4.61;100.00
60433;BME280;46286;48.098;11.590;2023-02-28T00:08:00;95922.56;;;-4.60;100.00
60433;BME280;46286;48.098;11.590;2023-02-28T00:10:28;95912.78;;;-4.73;100.00
60433;BME280;46286;48.098;11.590;2023-02-28T00:12:55;95915.50;;;-4.75;100.00
60433;BME280;46286;48.098;11.590;2023-02-28T00:15:22;95917.13;;;-4.74;100.00
60433;BME280;46286;48.098;11.590;2023-02-28T00:17:49;95914.56;;;-4.74;100.00
60433;BME280;46286;48.098;11.590;2023-02-28T00:20:15;95911.66;;;-4.71;100.00
60433;BME280;46286;48.098;11.590;2023-02-28T00:22:44;95910.38;;;-4.75;100.00
60433;BME280;46286;48.098;11.590;2023-02-28T00:25:13;95907.81;;;-4.83;100.00
60433;BME280;46286;48.098;11.590;2023-02-28T00:27:39;95904.63;;;-4.77;100.00
60433;BME280;46286;48.098;11.590;2023-02-28T00:30:07;95904.28;;;-4.82;100.00
60433;BME280;46286;48.098;11.590;2023-02-28T00:32:33;95899.16;;;-4.82;100.00
60433;BME280;46286;48.098;11.590;2023-02-28T00:35:00;95896.25;;;-4.87;100.00
60433;BME280;46286;48.098;11.590;2023-02-28T00:37:25;95889.06;;;-4.92;100.00
60433;BME280;46286;48.098;11.590;2023-02-28T00:39:51;95903.66;;;-4.92;100.00
60433;BME280;46286;48.098;11.590;2023-02-28T00:42:17;95901.72;;;-4.90;100.00
60433;BME280;46286;48.098;11.590;2023-02-28T00:44:43;95902.72;;;-4.99;100.00
60433;BME280;46286;48.098;11.590;2023-02-28T00:47:08;95901.28;;;-5.02;100.00
60433;BME280;46286;48.098;11.590;2023-02-28T00:49:34;95899.81;;;-5.05;100.00
60433;BME280;46286;48.098;11.590;2023-02-28T00:51:59;95899.19;;;-4.98;100.00
60433;BME280;46286;48.098;11.590;2023-02-28T00:54:25;95904.31;;;-4.98;100.00
60433;BME280;46286;48.098;11.590;2023-02-28T00:56:50;95900.78;;;-4.97;100.00
60433;BME280;46286;48.098;11.590;2023-02-28T00:59:17;95897.91;;;-5.02;100.00
60433;BME280;46286;48.098;11.590;2023-02-28T01:01:43;95898.25;;;-5.06;100.00
60433;BME280;46286;48.098;11.590;2023-02-28T01:04:09;95904.97;;;-5.05;100.00
60433;BME280;46286;48.098;11.590;2023-02-28T01:06:35;95898.06;;;-5.04;100.00
60433;BME280;46286;48.098;11.590;2023-02-28T01:09:03;95898.88;;;-5.12;100.00
60433;BME280;46286;48.098;11.590;2023-02-28T01:11:29;95902.72;;;-5.16;100.00
60433;BME280;46286;48.098;11.590;2023-02-28T01:13:54;95886.19;;;-5.13;100.00
60433;BME280;46286;48.098;11.590;2023-02-28T01:16:20;95893.44;;;-5.17;100.00
60433;BME280;46286;48.098;11.590;2023-02-28T01:18:45;95885.72;;;-5.17;100.00
60433;BME280;46286;48.098;11.590;2023-02-28T01:21:14;95893.09;;;-5.22;100.00
60433;BME280;46286;48.098;11.590;2023-02-28T01:23:40;95883.78;;;-5.23;100.00
60433;BME280;46286;48.098;11.590;2023-02-28T01:26:08;95888.28;;;-5.25;100.00
60433;BME280;46286;48.098;11.590;2023-02-28T01:28:34;95879.97;;;-5.27;100.00
60433;BME280;46286;48.098;11.590;2023-02-28T01:30:59;95885.09;;;-5.27;100.00
60433;BME280;46286;48.098;11.590;2023-02-28T01:33:25;95879.31;;;-5.21;100.00
60433;BME280;46286;48.098;11.590;2023-02-28T01:35:58;95883.66;;;-5.30;100.00
60433;BME280;46286;48.098;11.590;2023-02-28T01:38:24;95879.97;;;-5.27;100.00
60433;BME280;46286;48.098;11.590;2023-02-28T01:40:50;95877.41;;;-5.35;100.00
60433;BME280;46286;48.098;11.590;2023-02-28T01:43:30;95878.84;;;-5.41;100.00
60433;BME280;46286;48.098;11.590;2023-02-28T01:45:57;95866.31;;;-5.52;100.00
60433;BME280;46286;48.098;11.590;2023-02-28T01:48:27;95870.00;;;-5.47;100.00
60433;BME280;46286;48.098;11.590;2023-02-28T01:50:55;95870.66;;;-5.53;100.00
60433;BME280;46286;48.098;11.590;2023-02-28T01:53:47;95871.63;;;-5.46;100.00
60433;BME280;46286;48.098;11.590;2023-02-28T01:56:13;95863.13;;;-5.54;100.00
60433;BME280;46286;48.098;11.590;2023-02-28T01:58:53;95866.81;;;-5.57;100.00
60433;BME280;46286;48.098;11.590;2023-02-28T02:01:21;95865.81;;;-5.56;100.00
60433;BME280;46286;48.098;11.590;2023-02-28T02:03:53;95859.13;;;-5.57;100.00
60433;BME280;46286;48.098;11.590;2023-02-28T02:06:34;95854.31;;;-5.60;100.00
60433;BME280;46286;48.098;11.590;2023-02-28T02:09:02;95859.44;;;-5.60;100.00
60433;BME280;46286;48.098;11.590;2023-02-28T02:11:28;95855.25;;;-5.61;100.00
60433;BME280;46286;48.098;11.590;2023-02-28T02:17:01;95854.31;;;-5.60;100.00
60433;BME280;46286;48.098;11.590;2023-02-28T02:27:33;95850.44;;;-5.72;100.00
60433;BME280;46286;48.098;11.590;2023-02-28T02:30:37;95852.38;;;-5.66;100.00
60433;BME280;46286;48.098;11.590;2023-02-28T02:36:18;95857.50;;;-5.58;100.00
60433;BME280;46286;48.098;11.590;2023-02-28T02:38:52;95852.69;;;-5.61;100.00
60433;BME280;46286;48.098;11.590;2023-02-28T02:41:32;95858.16;;;-5.64;100.00
60433;BME280;46286;48.098;11.590;2023-02-28T02:44:08;95847.56;;;-5.69;100.00
60433;BME280;46286;48.098;11.590;2023-02-28T02:46:45;95846.94;;;-5.71;100.00
60433;BME280;46286;48.098;11.590;2023-02-28T02:49:17;95849.94;;;-5.76;100.00
60433;BME280;46286;48.098;11.590;2023-02-28T02:51:47;95845.63;;;-5.76;100.00
60433;BME280;46286;48.098;11.590;2023-02-28T02:54:20;95844.19;;;-5.78;100.00
60433;BME280;46286;48.098;11.590;2023-02-28T02:56:48;95840.84;;;-5.79;100.00
60433;BME280;46286;48.098;11.590;2023-02-28T02:59:18;95838.91;;;-5.77;100.00
60433;BME280;46286;48.098;11.590;2023-02-28T03:01:51;95837.28;;;-5.78;100.00
60433;BME280;46286;48.098;11.590;2023-02-28T03:04:23;95841.31;;;-5.75;100.00
60433;BME280;46286;48.098;11.590;2023-02-28T03:06:51;95839.69;;;-5.76;100.00
60433;BME280;46286;48.098;11.590;2023-02-28T03:09:23;95841.94;;;-5.81;100.00
60433;BME280;46286;48.098;11.590;2023-02-28T03:11:52;95838.59;;;-5.82;100.00
60433;BME280;46286;48.098;11.590;2023-02-28T03:14:50;95843.06;;;-5.76;100.00
60433;BME280;46286;48.098;11.590;2023-02-28T03:17:36;95841.75;;;-5.88;100.00
60433;BME280;46286;48.098;11.590;2023-02-28T03:31:00;95839.53;;;-5.83;100.00
60433;BME280;46286;48.098;11.590;2023-02-28T03:33:39;95840.00;;;-5.79;100.00
60433;BME280;46286;48.098;11.590;2023-02-28T03:36:12;95842.41;;;-5.78;100.00
60433;BME280;46286;48.098;11.590;2023-02-28T03:38:52;95844.34;;;-5.80;100.00
60433;BME280;46286;48.098;11.590;2023-02-28T03:41:22;95840.84;;;-5.79;100.00
60433;BME280;46286;48.098;11.590;2023-02-28T03:43:54;95840.19;;;-5.81;100.00
60433;BME280;46286;48.098;11.590;2023-02-28T03:46:22;95837.28;;;-5.78;100.00
60433;BME280;46286;48.098;11.590;2023-02-28T03:48:57;95844.50;;;-5.81;100.00
60433;BME280;46286;48.098;11.590;2023-02-28T03:51:27;95852.69;;;-5.86;100.00
60433;BME280;46286;48.098;11.590;2023-02-28T03:53:58;95841.44;;;-5.85;100.00
60433;BME280;46286;48.098;11.590;2023-02-28T03:59:10;95846.59;;;-5.77;100.00
60433;BME280;46286;48.098;11.590;2023-02-28T04:01:41;95849.78;;;-5.83;100.00
60433;BME280;46286;48.098;11.590;2023-02-28T04:04:10;95856.69;;;-5.75;100.00
60433;BME280;46286;48.098;11.590;2023-02-28T04:06:36;95857.78;;;-5.78;100.00
60433;BME280;46286;48.098;11.590;2023-02-28T04:09:03;95861.66;;;-5.82;100.00
60433;BME280;46286;48.098;11.590;2023-02-28T04:13:54;95869.97;;;-5.80;100.00
60433;BME280;46286;48.098;11.590;2023-02-28T04:16:20;95874.78;;;-5.85;100.00
60433;BME280;46286;48.098;11.590;2023-02-28T04:18:46;95878.63;;;-5.81;100.00
60433;BME280;46286;48.098;11.590;2023-02-28T04:21:12;95876.53;;;-5.85;100.00
60433;BME280;46286;48.098;11.590;2023-02-28T04:23:37;95883.44;;;-5.78;100.00
60433;BME280;46286;48.098;11.590;2023-02-28T04:26:03;95883.44;;;-5.78;100.00
60433;BME280;46286;48.098;11.590;2023-02-28T04:28:29;95883.75;;;-5.81;100.00
60433;BME280;46286;48.098;11.590;2023-02-28T04:31:03;95885.03;;;-5.85;100.00
60433;BME280;46286;48.098;11.590;2023-02-28T04:33:29;95885.84;;;-5.76;100.00
60433;BME280;46286;48.098;11.590;2023-02-28T04:36:07;95882.81;;;-5.80;100.00
60433;BME280;46286;48.098;11.590;2023-02-28T04:38:35;95879.28;;;-5.79;100.00
60433;BME280;46286;48.098;11.590;2023-02-28T04:41:01;95882.47;;;-5.77;100.00
60433;BME280;46286;48.098;11.590;2023-02-28T04:43:28;95880.25;;;-5.71;100.00
60433;BME280;46286;48.098;11.590;2023-02-28T04:45:55;95879.59;;;-5.74;100.00
60433;BME280;46286;48.098;11.590;2023-02-28T04:48:23;95877.38;;;-5.68;100.00
60433;BME280;46286;48.098;11.590;2023-02-28T04:50:50;95878.66;;;-5.64;100.00
60433;BME280;46286;48.098;11.590;2023-02-28T04:53:16;95884.41;;;-5.70;100.00
60433;BME280;46286;48.098;11.590;2023-02-28T04:55:41;95884.13;;;-5.67;100.00
60433;BME280;46286;48.098;11.590;2023-02-28T04:58:07;95889.53;;;-5.70;100.00
60433;BME280;46286;48.098;11.590;2023-02-28T05:00:32;95877.69;;;-5.71;100.00
60433;BME280;46286;48.098;11.590;2023-02-28T05:02:58;95897.56;;;-5.65;100.00
60433;BME280;46286;48.098;11.590;2023-02-28T05:05:23;95893.06;;;-5.63;100.00
60433;BME280;46286;48.098;11.590;2023-02-28T05:07:49;95894.06;;;-5.64;100.00
60433;BME280;46286;48.098;11.590;2023-02-28T05:10:14;95888.28;;;-5.58;100.00
60433;BME280;46286;48.098;11.590;2023-02-28T05:12:40;95907.19;;;-5.51;100.00
60433;BME280;46286;48.098;11.590;2023-02-28T05:15:05;95902.41;;;-5.46;100.00
60433;BME280;46286;48.098;11.590;2023-02-28T05:17:31;95896.47;;;-5.46;100.00
60433;BME280;46286;48.098;11.590;2023-02-28T05:19:57;95899.66;;;-5.36;100.00
60433;BME280;46286;48.098;11.590;2023-02-28T05:22:22;95901.28;;;-5.27;100.00
60433;BME280;46286;48.098;11.590;2023-02-28T05:24:48;95903.03;;;-5.19;100.00
60433;BME280;46286;48.098;11.590;2023-02-28T05:27:13;95902.88;;;-5.09;100.00
60433;BME280;46286;48.098;11.590;2023-02-28T05:29:39;95910.09;;;-5.05;100.00
60433;BME280;46286;48.098;11.590;2023-02-28T05:32:12;95909.47;;;-4.98;100.00
60433;BME280;46286;48.098;11.590;2023-02-28T05:34:38;95905.91;;;-4.97;100.00
60433;BME280;46286;48.098;11.590;2023-02-28T05:37:05;95913.28;;;-4.86;100.00
60433;BME280;46286;48.098;11.590;2023-02-28T05:39:31;95908.47;;;-4.81;100.00
60433;BME280;46286;48.098;11.590;2023-02-28T05:41:57;95908.75;;;-4.76;100.00
60433;BME280;46286;48.098;11.590;2023-02-28T05:44:23;95909.72;;;-4.68;100.00
60433;BME280;46286;48.098;11.590;2023-02-28T05:46:48;95906.84;;;-4.65;100.00
60433;BME280;46286;48.098;11.590;2023-02-28T05:49:14;95905.22;;;-4.58;100.00
60433;BME280;46286;48.098;11.590;2023-02-28T05:51:39;95907.63;;;-4.57;100.00
60433;BME280;46286;48.098;11.590;2023-02-28T05:54:06;95908.09;;;-4.53;100.00
60433;BME280;46286;48.098;11.590;2023-02-28T05:56:32;95915.00;;;-4.54;100.00
60433;BME280;46286;48.098;11.590;2023-02-28T05:58:59;95918.97;;;-4.43;100.00
60433;BME280;46286;48.098;11.590;2023-02-28T06:01:36;95920.91;;;-4.45;100.00
60433;BME280;46286;48.098;11.590;2023-02-28T06:04:03;95920.25;;;-4.39;100.00
60433;BME280;46286;48.098;11.590;2023-02-28T06:06:29;95923.47;;;-4.37;100.00
60433;BME280;46286;48.098;11.590;2023-02-28T06:08:55;95928.59;;;-4.37;100.00
60433;BME280;46286;48.098;11.590;2023-02-28T06:11:21;95933.41;;;-4.33;100.00
60433;BME280;46286;48.098;11.590;2023-02-28T06:13:54;95926.47;;;-4.25;100.00
60433;BME280;46286;48.098;11.590;2023-02-28T06:16:21;95935.28;;;-4.19;100.00
60433;BME280;46286;48.098;11.590;2023-02-28T06:18:47;95941.38;;;-4.20;100.00
60433;BME280;46286;48.098;11.590;2023-02-28T06:21:12;95944.75;;;-4.20;100.00
60433;BME280;46286;48.098;11.590;2023-02-28T06:23:38;95941.38;;;-4.12;100.00
60433;BME280;46286;48.098;11.590;2023-02-28T06:26:04;95927.75;;;-4.21;100.00
60433;BME280;46286;48.098;11.590;2023-02-28T06:28:30;95938.47;;;-4.17;100.00
60433;BME280;46286;48.098;11.590;2023-02-28T06:30:56;95947.78;;;-4.08;100.00
60433;BME280;46286;48.098;11.590;2023-02-28T06:33:21;95944.91;;;-4.13;100.00
60433;BME280;46286;48.098;11.590;2023-02-28T06:35:50;95946.50;;;-4.12;100.00
60433;BME280;46286;48.098;11.590;2023-02-28T06:38:16;95939.75;;;-4.13;100.00
60433;BME280;46286;48.098;11.590;2023-02-28T06:40:41;95945.84;;;-4.06;100.00
60433;BME280;46286;48.098;11.590;2023-02-28T06:43:07;95946.78;;;-3.98;100.00
60433;BME280;46286;48.098;11.590;2023-02-28T06:45:32;95952.25;;;-4.02;100.00
60433;BME280;46286;48.098;11.590;2023-02-28T06:47:58;95956.47;;;-4.09;100.00
60433;BME280;46286;48.098;11.590;2023-02-28T06:50:25;95965.72;;;-4.00;100.00
60433;BME280;46286;48.098;11.590;2023-02-28T06:52:52;95967.00;;;-3.95;100.00
60433;BME280;46286;48.098;11.590;2023-02-28T06:55:19;95972.47;;;-3.98;100.00
60433;BME280;46286;48.098;11.590;2023-02-28T06:57:45;95971.63;;;-3.91;100.00
60433;BME280;46286;48.098;11.590;2023-02-28T07:00:11;95961.84;;;-3.95;100.00
60433;BME280;46286;48.098;11.590;2023-02-28T07:02:37;95971.16;;;-3.86;100.00
60433;BME280;46286;48.098;11.590;2023-02-28T07:05:04;95972.09;;;-3.79;100.00
60433;BME280;46286;48.098;11.590;2023-02-28T07:07:30;95981.44;;;-3.86;100.00
60433;BME280;46286;48.098;11.590;2023-02-28T07:09:56;95981.44;;;-3.86;100.00
60433;BME280;46286;48.098;11.590;2023-02-28T07:12:21;95979.16;;;-3.81;100.00
60433;BME280;46286;48.098;11.590;2023-02-28T07:14:47;95978.81;;;-3.78;100.00
60433;BME280;46286;48.098;11.590;2023-02-28T07:17:12;95984.63;;;-3.76;100.00
60433;BME280;46286;48.098;11.590;2023-02-28T07:19:39;95990.38;;;-3.74;100.00
60433;BME280;46286;48.098;11.590;2023-02-28T07:22:05;95982.38;;;-3.79;100.00
60433;BME280;46286;48.098;11.590;2023-02-28T07:24:30;95979.75;;;-3.71;100.00
60433;BME280;46286;48.098;11.590;2023-02-28T07:26:56;95975.88;;;-3.67;100.00
60433;BME280;46286;48.098;11.590;2023-02-28T07:29:22;95987.44;;;-3.62;100.00
60433;BME280;46286;48.098;11.590;2023-02-28T07:31:47;95986.25;;;-3.83;100.00
60433;BME280;46286;48.098;11.590;2023-02-28T07:34:14;95982.31;;;-3.71;100.00
60433;BME280;46286;48.098;11.590;2023-02-28T07:36:39;95985.56;;;-3.77;100.00
60433;BME280;46286;48.098;11.590;2023-02-28T07:39:05;95985.91;;;-3.80;100.00
60433;BME280;46286;48.098;11.590;2023-02-28T07:41:30;95970.13;;;-3.77;100.00
60433;BME280;46286;48.098;11.590;2023-02-28T07:43:59;95977.47;;;-3.66;100.00
60433;BME280;46286;48.098;11.590;2023-02-28T07:46:25;95974.75;;;-3.64;100.00
60433;BME280;46286;48.098;11.590;2023-02-28T07:48:51;95971.31;;;-3.56;100.00
60433;BME280;46286;48.098;11.590;2023-02-28T07:51:18;95974.31;;;-3.44;100.00
60433;BME280;46286;48.098;11.590;2023-02-28T07:53:44;95976.03;;;-3.37;100.00
60433;BME280;46286;48.098;11.590;2023-02-28T07:56:10;95972.84;;;-3.39;100.00
60433;BME280;46286;48.098;11.590;2023-02-28T07:58:36;95972.84;;;-3.39;100.00
60433;BME280;46286;48.098;11.590;2023-02-28T08:01:08;95982.22;;;-3.46;100.00
60433;BME280;46286;48.098;11.590;2023-02-28T08:03:35;95994.09;;;-3.45;100.00
60433;BME280;46286;48.098;11.590;2023-02-28T08:06:02;95977.41;;;-3.49;100.00
60433;BME280;46286;48.098;11.590;2023-02-28T08:08:28;95984.50;;;-3.51;100.00
60433;BME280;46286;48.098;11.590;2023-02-28T08:11:00;95998.31;;;-3.52;100.00
60433;BME280;46286;48.098;11.590;2023-02-28T08:13:27;95989.38;;;-3.33;100.00
60433;BME280;46286;48.098;11.590;2023-02-28T08:15:54;95991.84;;;-3.40;100.00
60433;BME280;46286;48.098;11.590;2023-02-28T08:18:21;95992.28;;;-3.36;100.00
60433;BME280;46286;48.098;11.590;2023-02-28T08:20:46;95992.84;;;-3.49;100.00
60433;BME280;46286;48.098;11.590;2023-02-28T08:23:12;95998.69;;;-3.32;100.00
60433;BME280;46286;48.098;11.590;2023-02-28T08:25:38;95993.88;;;-3.35;100.00
60433;BME280;46286;48.098;11.590;2023-02-28T08:28:04;95995.63;;;-3.27;100.00
60433;BME280;46286;48.098;11.590;2023-02-28T08:30:29;95989.78;;;-3.21;100.00
60433;BME280;46286;48.098;11.590;2023-02-28T08:32:55;95990.72;;;-3.14;100.00
60433;BME280;46286;48.098;11.590;2023-02-28T08:35:21;96000.66;;;-3.11;100.00
60433;BME280;46286;48.098;11.590;2023-02-28T08:37:48;96004.78;;;-3.02;100.00
60433;BME280;46286;48.098;11.590;2023-02-28T08:40:14;96006.25;;;-3.31;100.00
60433;BME280;46286;48.098;11.590;2023-02-28T08:42:49;96014.84;;;-3.15;100.00
60433;BME280;46286;48.098;11.590;2023-02-28T08:45:15;96005.69;;;-2.94;100.00
60433;BME280;46286;48.098;11.590;2023-02-28T08:47:41;96019.81;;;-2.90;100.00
60433;BME280;46286;48.098;11.590;2023-02-28T08:50:07;96018.63;;;-3.03;100.00
60433;BME280;46286;48.098;11.590;2023-02-28T08:52:33;96016.00;;;-2.94;100.00
60433;BME280;46286;48.098;11.590;2023-02-28T08:54:59;96014.34;;;-2.87;100.00
60433;BME280;46286;48.098;11.590;2023-02-28T08:57:25;96015.53;;;-2.75;100.00
60433;BME280;46286;48.098;11.590;2023-02-28T08:59:52;96014.94;;;-2.62;100.00
60433;BME280;46286;48.098;11.590;2023-02-28T09:02:17;96017.50;;;-2.77;100.00
60433;BME280;46286;48.098;11.590;2023-02-28T09:04:43;96022.66;;;-2.77;100.00
60433;BME280;46286;48.098;11.590;2023-02-28T09:07:11;96022.13;;;-2.72;100.00
60433;BME280;46286;48.098;11.590;2023-02-28T09:09:37;96024.53;;;-2.71;100.00
60433;BME280;46286;48.098;11.590;2023-02-28T09:12:03;96021.25;;;-2.65;100.00
60433;BME280;46286;48.098;11.590;2023-02-28T09:14:28;96027.72;;;-2.69;100.00
60433;BME280;46286;48.098;11.590;2023-02-28T09:16:54;96020.56;;;-2.58;100.00
60433;BME280;46286;48.098;11.590;2023-02-28T09:19:20;96029.84;;;-2.72;100.00
60433;BME280;46286;48.098;11.590;2023-02-28T09:21:46;96034.09;;;-2.80;100.00
60433;BME280;46286;48.098;11.590;2023-02-28T09:24:11;96031.69;;;-2.81;100.00
60433;BME280;46286;48.098;11.590;2023-02-28T09:26:39;96034.78;;;-2.63;100.00
60433;BME280;46286;48.098;11.590;2023-02-28T09:29:05;96036.44;;;-2.32;100.00
60433;BME280;46286;48.098;11.590;2023-02-28T09:31:32;96037.22;;;-2.46;100.00
60433;BME280;46286;48.098;11.590;2023-02-28T09:33:58;96041.75;;;-2.48;100.00
60433;BME280;46286;48.098;11.590;2023-02-28T09:36:25;96039.44;;;-2.43;100.00
60433;BME280;46286;48.098;11.590;2023-02-28T09:38:51;96045.16;;;-2.33;100.00
60433;BME280;46286;48.098;11.590;2023-02-28T09:41:26;96045.50;;;-2.36;100.00
60433;BME280;46286;48.098;11.590;2023-02-28T09:43:59;96048.47;;;-2.24;100.00
60433;BME280;46286;48.098;11.590;2023-02-28T09:46:31;96060.38;;;-2.23;100.00
60433;BME280;46286;48.098;11.590;2023-02-28T09:49:00;96061.31;;;-2.39;100.00
60433;BME280;46286;48.098;11.590;2023-02-28T09:51:56;96061.19;;;-2.22;100.00
60433;BME280;46286;48.098;11.590;2023-02-28T09:54:26;96062.84;;;-2.30;100.00
60433;BME280;46286;48.098;11.590;2023-02-28T09:57:00;96060.63;;;-2.33;100.00
60433;BME280;46286;48.098;11.590;2023-02-28T10:07:23;96060.59;;;-2.10;100.00
60433;BME280;46286;48.098;11.590;2023-02-28T10:09:58;96067.06;;;-1.99;100.00
60433;BME280;46286;48.098;11.590;2023-02-28T10:12:27;96069.53;;;-2.20;100.00
60433;BME280;46286;48.098;11.590;2023-02-28T10:14:56;96069.53;;;-2.20;100.00
60433;BME280;46286;48.098;11.590;2023-02-28T10:17:27;96076.06;;;-2.10;100.00
60433;BME280;46286;48.098;11.590;2023-02-28T10:22:37;96071.34;;;-2.06;100.00
60433;BME280;46286;48.098;11.590;2023-02-28T10:25:22;96077.69;;;-1.94;100.00
60433;BME280;46286;48.098;11.590;2023-02-28T10:27:50;96079.91;;;-1.90;100.00
60433;BME280;46286;48.098;11.590;2023-02-28T10:30:18;96073.59;;;-1.88;100.00
60433;BME280;46286;48.098;11.590;2023-02-28T10:32:50;96076.00;;;-1.57;100.00
60433;BME280;46286;48.098;11.590;2023-02-28T10:35:20;96082.56;;;-1.69;100.00
60433;BME280;46286;48.098;11.590;2023-02-28T10:37:56;96083.47;;;-1.62;100.00
60433;BME280;46286;48.098;11.590;2023-02-28T10:43:05;96078.84;;;-1.51;100.00
60433;BME280;46286;48.098;11.590;2023-02-28T10:45:33;96087.69;;;-1.09;100.00
60433;BME280;46286;48.098;11.590;2023-02-28T10:48:04;96084.41;;;-1.18;100.00
60433;BME280;46286;48.098;11.590;2023-02-28T10:53:15;96091.78;;;-1.00;100.00
60433;BME280;46286;48.098;11.590;2023-02-28T10:55:41;96090.38;;;-1.17;100.00
60433;BME280;46286;48.098;11.590;2023-02-28T10:58:22;96097.44;;;-0.90;100.00
60433;BME280;46286;48.098;11.590;2023-02-28T11:00:48;96091.31;;;-0.67;100.00
60433;BME280;46286;48.098;11.590;2023-02-28T11:05:50;96090.81;;;-0.34;100.00
60433;BME280;46286;48.098;11.590;2023-02-28T11:08:17;96092.44;;;-0.55;100.00
60433;BME280;46286;48.098;11.590;2023-02-28T11:10:48;96093.22;;;-0.32;100.00
60433;BME280;46286;48.098;11.590;2023-02-28T11:13:19;96094.56;;;-0.37;100.00
60433;BME280;46286;48.098;11.590;2023-02-28T11:15:54;96097.34;;;-0.16;100.00
60433;BME280;46286;48.098;11.590;2023-02-28T11:18:24;96086.28;;;-0.04;100.00
60433;BME280;46286;48.098;11.590;2023-02-28T11:20:54;96093.66;;;0.28;100.00
60433;BME280;46286;48.098;11.590;2023-02-28T11:23:24;96095.28;;;1.26;100.00
60433;BME280;46286;48.098;11.590;2023-02-28T11:25:52;96087.00;;;1.77;100.00
60433;BME280;46286;48.098;11.590;2023-02-28T11:31:04;96092.31;;;1.29;100.00
60433;BME280;46286;48.098;11.590;2023-02-28T11:33:41;96080.97;;;1.43;100.00
60433;BME280;46286;48.098;11.590;2023-02-28T11:36:22;96069.19;;;2.28;100.00
60433;BME280;46286;48.098;11.590;2023-02-28T11:39:09;96074.00;;;1.90;100.00
60433;BME280;46286;48.098;11.590;2023-02-28T11:44:41;96065.66;;;2.74;100.00
60433;BME280;46286;48.098;11.590;2023-02-28T11:52:57;96059.81;;;1.33;100.00
60433;BME280;46286;48.098;11.590;2023-02-28T11:55:31;96056.97;;;1.28;100.00
60433;BME280;46286;48.098;11.590;2023-02-28T11:58:29;96063.03;;;1.48;100.00
60433;BME280;46286;48.098;11.590;2023-02-28T12:01:28;96057.38;;;1.11;100.00
60433;BME280;46286;48.098;11.590;2023-02-28T12:04:24;96058.34;;;1.10;100.00
60433;BME280;46286;48.098;11.590;2023-02-28T12:07:05;96065.28;;;0.90;100.00
60433;BME280;46286;48.098;11.590;2023-02-28T12:09:50;96056.31;;;0.99;100.00
60433;BME280;46286;48.098;11.590;2023-02-28T12:12:33;96050.22;;;1.27;100.00
60433;BME280;46286;48.098;11.590;2023-02-28T12:23:00;96033.06;;;1.79;100.00
60433;BME280;46286;48.098;11.590;2023-02-28T12:25:43;96035.41;;;2.21;100.00
60433;BME280;46286;48.098;11.590;2023-02-28T12:28:16;96031.13;;;3.05;100.00
60433;BME280;46286;48.098;11.590;2023-02-28T12:30:54;96034.00;;;2.90;100.00
60433;BME280;46286;48.098;11.590;2023-02-28T12:33:24;96023.28;;;3.44;97.24
60433;BME280;46286;48.098;11.590;2023-02-28T12:35:58;96016.53;;;3.87;100.00
60433;BME280;46286;48.098;11.590;2023-02-28T12:38:28;96023.44;;;4.74;89.10
60433;BME280;46286;48.098;11.590;2023-02-28T12:41:10;96018.47;;;6.11;83.12
60433;BME280;46286;48.098;11.590;2023-02-28T12:43:46;96013.47;;;6.21;73.12
60433;BME280;46286;48.098;11.590;2023-02-28T12:46:21;96008.81;;;5.33;77.72
60433;BME280;46286;48.098;11.590;2023-02-28T12:48:53;96015.75;;;4.97;81.21
60433;BME280;46286;48.098;11.590;2023-02-28T12:51:22;96007.69;;;4.68;85.94
60433;BME280;46286;48.098;11.590;2023-02-28T12:56:42;96014.88;;;3.92;84.35
60433;BME280;46286;48.098;11.590;2023-02-28T12:59:40;96015.50;;;4.13;87.89
60433;BME280;46286;48.098;11.590;2023-02-28T13:02:36;96019.25;;;4.17;83.66
60433;BME280;46286;48.098;11.590;2023-02-28T13:05:31;96018.88;;;2.74;97.08
60433;BME280;46286;48.098;11.590;2023-02-28T13:10:53;96010.81;;;2.89;95.54
60433;BME280;46286;48.098;11.590;2023-02-28T13:13:30;96010.97;;;2.49;100.00
60433;BME280;46286;48.098;11.590;2023-02-28T13:16:15;96020.22;;;2.31;100.00
60433;BME280;46286;48.098;11.590;2023-02-28T13:18:45;96019.84;;;2.28;100.00
60433;BME280;46286;48.098;11.590;2023-02-28T13:21:28;96021.09;;;1.92;100.00
60433;BME280;46286;48.098;11.590;2023-02-28T13:29:01;96014.31;;;1.90;100.00
60433;BME280;46286;48.098;11.590;2023-02-28T13:31:27;96017.84;;;2.16;100.00
60433;BME280;46286;48.098;11.590;2023-02-28T13:36:31;96020.69;;;1.95;100.00
60433;BME280;46286;48.098;11.590;2023-02-28T13:39:02;96022.28;;;1.96;100.00
60433;BME280;46286;48.098;11.590;2023-02-28T13:46:35;96021.09;;;1.65;100.00
60433;BME280;46286;48.098;11.590;2023-02-28T13:51:49;96017.13;;;1.76;100.00
60433;BME280;46286;48.098;11.590;2023-02-28T14:05:37;96011.44;;;2.25;100.00
60433;BME280;46286;48.098;11.590;2023-02-28T14:08:18;96018.22;;;2.40;100.00
60433;BME280;46286;48.098;11.590;2023-02-28T14:10:51;96023.28;;;2.73;100.00
60433;BME280;46286;48.098;11.590;2023-02-28T14:13:38;96012.59;;;2.43;100.00
60433;BME280;46286;48.098;11.590;2023-02-28T14:16:10;96012.13;;;2.66;100.00
60433;BME280;46286;48.098;11.590;2023-02-28T14:18:41;96013.66;;;2.29;100.00
60433;BME280;46286;48.098;11.590;2023-02-28T14:21:13;96018.22;;;2.40;100.00
60433;BME280;46286;48.098;11.590;2023-02-28T14:35:03;96007.94;;;1.73;100.00
60433;BME280;46286;48.098;11.590;2023-02-28T14:37:38;96011.09;;;2.02;100.00
60433;BME280;46286;48.098;11.590;2023-02-28T14:40:15;96011.53;;;1.72;100.00
60433;BME280;46286;48.098;11.590;2023-02-28T14:42:47;96019.91;;;1.87;100.00
60433;BME280;46286;48.098;11.590;2023-02-28T14:45:20;96013.91;;;1.53;100.00
60433;BME280;46286;48.098;11.590;2023-02-28T14:47:47;96006.75;;;1.69;100.00